sensor_id;sensor_type;location;lat;lon;timestamp;P1;durP1;ratioP1;P2;durP2;ratioP2
11287;SDS011;5700;50.996;7.044;2022-11-22T00:02:44;2.50;;;1.20;;
11287;SDS011;5700;50.996;7.044;2022-11-22T00:05:46;4.97;;;1.60;;
11287;SDS011;5700;50.996;7.044;2022-11-22T00:08:47;2.15;;;1.10;;
11287;SDS011;5700;50.996;7.044;2022-11-22T00:11:49;6.30;;;1.73;;
11287;SDS011;5700;50.996;7.044;2022-11-22T00:14:51;6.03;;;2.53;;
11287;SDS011;5700;50.996;7.044;2022-11-22T00:17:53;4.95;;;1.40;;
11287;SDS011;5700;50.996;7.044;2022-11-22T00:20:54;5.25;;;1.35;;
11287;SDS011;5700;50.996;7.044;2022-11-22T00:23:56;10.68;;;1.63;;
11287;SDS011;5700;50.996;7.044;2022-11-22T00:26:57;4.97;;;1.50;;
11287;SDS011;5700;50.996;7.044;2022-11-22T00:30:00;3.53;;;1.27;;
11287;SDS011;5700;50.996;7.044;2022-11-22T00:33:01;9.10;;;1.42;;
11287;SDS011;5700;50.996;7.044;2022-11-22T00:36:03;3.13;;;1.42;;
11287;SDS011;5700;50.996;7.044;2022-11-22T00:39:04;6.60;;;1.92;;
11287;SDS011;5700;50.996;7.044;2022-11-22T00:42:06;5.28;;;1.15;;
11287;SDS011;5700;50.996;7.044;2022-11-22T00:45:09;4.28;;;1.30;;
11287;SDS011;5700;50.996;7.044;2022-11-22T00:48:10;5.60;;;1.38;;
11287;SDS011;5700;50.996;7.044;2022-11-22T00:51:12;4.15;;;1.40;;
11287;SDS011;5700;50.996;7.044;2022-11-22T00:54:13;2.60;;;1.13;;
11287;SDS011;5700;50.996;7.044;2022-11-22T00:57:14;5.43;;;1.50;;
11287;SDS011;5700;50.996;7.044;2022-11-22T01:00:17;5.00;;;1.60;;
11287;SDS011;5700;50.996;7.044;2022-11-22T01:03:19;2.50;;;1.25;;
11287;SDS011;5700;50.996;7.044;2022-11-22T01:06:20;4.50;;;1.13;;
11287;SDS011;5700;50.996;7.044;2022-11-22T01:09:22;2.05;;;1.20;;
11287;SDS011;5700;50.996;7.044;2022-11-22T01:12:24;4.55;;;1.20;;
11287;SDS011;5700;50.996;7.044;2022-11-22T01:15:26;6.70;;;1.80;;
11287;SDS011;5700;50.996;7.044;2022-11-22T01:18:28;1.70;;;0.95;;
11287;SDS011;5700;50.996;7.044;2022-11-22T01:21:29;4.13;;;1.08;;
11287;SDS011;5700;50.996;7.044;2022-11-22T01:24:31;5.80;;;1.35;;
11287;SDS011;5700;50.996;7.044;2022-11-22T01:27:32;6.75;;;1.50;;
11287;SDS011;5700;50.996;7.044;2022-11-22T01:30:35;5.03;;;1.38;;
11287;SDS011;5700;50.996;7.044;2022-11-22T01:33:36;3.10;;;1.15;;
11287;SDS011;5700;50.996;7.044;2022-11-22T01:36:38;1.42;;;1.13;;
11287;SDS011;5700;50.996;7.044;2022-11-22T01:39:39;1.70;;;1.17;;
11287;SDS011;5700;50.996;7.044;2022-11-22T01:42:41;6.65;;;1.50;;
11287;SDS011;5700;50.996;7.044;2022-11-22T01:45:46;2.40;;;1.27;;
11287;SDS011;5700;50.996;7.044;2022-11-22T01:48:50;1.98;;;1.00;;
11287;SDS011;5700;50.996;7.044;2022-11-22T01:51:54;3.35;;;1.20;;
11287;SDS011;5700;50.996;7.044;2022-11-22T01:54:59;3.80;;;1.30;;
11287;SDS011;5700;50.996;7.044;2022-11-22T01:58:03;1.75;;;0.93;;
11287;SDS011;5700;50.996;7.044;2022-11-22T02:01:05;4.93;;;1.45;;
11287;SDS011;5700;50.996;7.044;2022-11-22T02:04:08;2.00;;;1.15;;
11287;SDS011;5700;50.996;7.044;2022-11-22T02:07:12;2.08;;;0.93;;
11287;SDS011;5700;50.996;7.044;2022-11-22T02:10:15;1.55;;;1.10;;
11287;SDS011;5700;50.996;7.044;2022-11-22T02:13:18;3.47;;;1.20;;
11287;SDS011;5700;50.996;7.044;2022-11-22T02:16:21;5.30;;;1.15;;
11287;SDS011;5700;50.996;7.044;2022-11-22T02:19:25;2.25;;;1.35;;
11287;SDS011;5700;50.996;7.044;2022-11-22T02:22:35;3.17;;;1.52;;
11287;SDS011;5700;50.996;7.044;2022-11-22T02:25:47;2.45;;;1.27;;
11287;SDS011;5700;50.996;7.044;2022-11-22T02:28:50;2.95;;;1.25;;
11287;SDS011;5700;50.996;7.044;2022-11-22T02:31:52;2.60;;;1.05;;
11287;SDS011;5700;50.996;7.044;2022-11-22T02:34:53;1.90;;;1.08;;
11287;SDS011;5700;50.996;7.044;2022-11-22T02:37:55;2.67;;;0.90;;
11287;SDS011;5700;50.996;7.044;2022-11-22T02:41:01;1.88;;;1.23;;
11287;SDS011;5700;50.996;7.044;2022-11-22T02:44:03;2.22;;;0.80;;
11287;SDS011;5700;50.996;7.044;2022-11-22T02:47:06;2.70;;;1.48;;
11287;SDS011;5700;50.996;7.044;2022-11-22T02:50:07;4.28;;;1.40;;
11287;SDS011;5700;50.996;7.044;2022-11-22T02:53:09;3.78;;;1.13;;
11287;SDS011;5700;50.996;7.044;2022-11-22T02:56:13;1.83;;;0.95;;
11287;SDS011;5700;50.996;7.044;2022-11-22T02:59:15;2.92;;;1.30;;
11287;SDS011;5700;50.996;7.044;2022-11-22T03:02:16;1.48;;;1.25;;
11287;SDS011;5700;50.996;7.044;2022-11-22T03:05:18;2.00;;;0.90;;
11287;SDS011;5700;50.996;7.044;2022-11-22T03:08:19;3.90;;;1.23;;
11287;SDS011;5700;50.996;7.044;2022-11-22T03:11:22;3.03;;;1.30;;
11287;SDS011;5700;50.996;7.044;2022-11-22T03:14:23;1.05;;;0.88;;
11287;SDS011;5700;50.996;7.044;2022-11-22T03:17:25;3.08;;;1.00;;
11287;SDS011;5700;50.996;7.044;2022-11-22T03:20:26;2.70;;;0.90;;
11287;SDS011;5700;50.996;7.044;2022-11-22T03:23:28;1.35;;;1.05;;
11287;SDS011;5700;50.996;7.044;2022-11-22T03:26:31;1.40;;;1.20;;
11287;SDS011;5700;50.996;7.044;2022-11-22T03:29:33;2.08;;;0.73;;
11287;SDS011;5700;50.996;7.044;2022-11-22T03:32:34;2.92;;;1.10;;
11287;SDS011;5700;50.996;7.044;2022-11-22T03:35:36;4.30;;;1.08;;
11287;SDS011;5700;50.996;7.044;2022-11-22T03:38:37;2.53;;;0.95;;
11287;SDS011;5700;50.996;7.044;2022-11-22T03:41:40;3.10;;;1.20;;
11287;SDS011;5700;50.996;7.044;2022-11-22T03:44:41;2.58;;;1.10;;
11287;SDS011;5700;50.996;7.044;2022-11-22T03:47:43;3.47;;;0.80;;
11287;SDS011;5700;50.996;7.044;2022-11-22T03:50:44;4.43;;;1.27;;
11287;SDS011;5700;50.996;7.044;2022-11-22T03:53:45;1.88;;;1.05;;
11287;SDS011;5700;50.996;7.044;2022-11-22T03:56:48;3.30;;;1.10;;
11287;SDS011;5700;50.996;7.044;2022-11-22T03:59:49;2.00;;;1.08;;
11287;SDS011;5700;50.996;7.044;2022-11-22T04:02:51;2.75;;;1.00;;
11287;SDS011;5700;50.996;7.044;2022-11-22T04:05:52;2.83;;;0.82;;
11287;SDS011;5700;50.996;7.044;2022-11-22T04:08:53;1.17;;;0.70;;
11287;SDS011;5700;50.996;7.044;2022-11-22T04:11:56;3.53;;;0.85;;
11287;SDS011;5700;50.996;7.044;2022-11-22T04:14:57;3.22;;;0.93;;
11287;SDS011;5700;50.996;7.044;2022-11-22T04:18:13;2.45;;;1.30;;
11287;SDS011;5700;50.996;7.044;2022-11-22T04:21:14;0.77;;;0.73;;
11287;SDS011;5700;50.996;7.044;2022-11-22T04:24:30;1.08;;;0.95;;
11287;SDS011;5700;50.996;7.044;2022-11-22T04:27:46;3.35;;;0.80;;
11287;SDS011;5700;50.996;7.044;2022-11-22T04:30:48;2.13;;;1.15;;
11287;SDS011;5700;50.996;7.044;2022-11-22T04:34:04;3.78;;;1.10;;
11287;SDS011;5700;50.996;7.044;2022-11-22T04:37:05;3.70;;;0.98;;
11287;SDS011;5700;50.996;7.044;2022-11-22T04:40:07;2.60;;;0.90;;
11287;SDS011;5700;50.996;7.044;2022-11-22T04:43:13;2.90;;;1.17;;
11287;SDS011;5700;50.996;7.044;2022-11-22T04:46:31;1.92;;;0.80;;
11287;SDS011;5700;50.996;7.044;2022-11-22T04:49:32;2.72;;;1.13;;
11287;SDS011;5700;50.996;7.044;2022-11-22T04:52:34;1.10;;;0.88;;
11287;SDS011;5700;50.996;7.044;2022-11-22T04:55:49;2.63;;;0.80;;
11287;SDS011;5700;50.996;7.044;2022-11-22T04:58:52;1.08;;;0.70;;
11287;SDS011;5700;50.996;7.044;2022-11-22T05:01:54;1.52;;;0.95;;
11287;SDS011;5700;50.996;7.044;2022-11-22T05:04:55;1.20;;;0.98;;
11287;SDS011;5700;50.996;7.044;2022-11-22T05:07:57;1.90;;;1.00;;
11287;SDS011;5700;50.996;7.044;2022-11-22T05:10:58;2.50;;;1.02;;
11287;SDS011;5700;50.996;7.044;2022-11-22T05:14:01;2.03;;;0.98;;
11287;SDS011;5700;50.996;7.044;2022-11-22T05:17:03;3.65;;;0.82;;
11287;SDS011;5700;50.996;7.044;2022-11-22T05:20:05;7.20;;;1.27;;
11287;SDS011;5700;50.996;7.044;2022-11-22T05:23:07;7.38;;;1.48;;
11287;SDS011;5700;50.996;7.044;2022-11-22T05:26:23;1.23;;;0.75;;
11287;SDS011;5700;50.996;7.044;2022-11-22T05:29:27;2.45;;;1.20;;
11287;SDS011;5700;50.996;7.044;2022-11-22T05:32:28;2.53;;;1.23;;
11287;SDS011;5700;50.996;7.044;2022-11-22T05:35:30;5.15;;;1.20;;
11287;SDS011;5700;50.996;7.044;2022-11-22T05:38:32;4.57;;;1.45;;
11287;SDS011;5700;50.996;7.044;2022-11-22T05:41:34;6.78;;;1.30;;
11287;SDS011;5700;50.996;7.044;2022-11-22T05:44:37;2.15;;;0.85;;
11287;SDS011;5700;50.996;7.044;2022-11-22T05:47:38;1.08;;;0.90;;
11287;SDS011;5700;50.996;7.044;2022-11-22T05:50:40;2.95;;;1.10;;
11287;SDS011;5700;50.996;7.044;2022-11-22T05:53:41;1.88;;;0.95;;
11287;SDS011;5700;50.996;7.044;2022-11-22T05:56:43;5.65;;;1.60;;
11287;SDS011;5700;50.996;7.044;2022-11-22T05:59:48;4.70;;;1.55;;
11287;SDS011;5700;50.996;7.044;2022-11-22T06:02:49;5.75;;;1.20;;
11287;SDS011;5700;50.996;7.044;2022-11-22T06:05:51;11.65;;;1.65;;
11287;SDS011;5700;50.996;7.044;2022-11-22T06:08:52;7.63;;;1.83;;
11287;SDS011;5700;50.996;7.044;2022-11-22T06:11:53;5.30;;;1.33;;
11287;SDS011;5700;50.996;7.044;2022-11-22T06:14:56;5.68;;;1.50;;
11287;SDS011;5700;50.996;7.044;2022-11-22T06:17:57;7.45;;;1.88;;
11287;SDS011;5700;50.996;7.044;2022-11-22T06:20:59;6.00;;;1.23;;
11287;SDS011;5700;50.996;7.044;2022-11-22T06:24:01;7.05;;;1.55;;
11287;SDS011;5700;50.996;7.044;2022-11-22T06:27:03;5.05;;;1.30;;
11287;SDS011;5700;50.996;7.044;2022-11-22T06:30:06;5.57;;;1.30;;
11287;SDS011;5700;50.996;7.044;2022-11-22T06:33:08;2.33;;;1.00;;
11287;SDS011;5700;50.996;7.044;2022-11-22T06:36:10;5.00;;;1.00;;
11287;SDS011;5700;50.996;7.044;2022-11-22T06:39:12;9.98;;;1.20;;
11287;SDS011;5700;50.996;7.044;2022-11-22T06:42:14;5.55;;;1.38;;
11287;SDS011;5700;50.996;7.044;2022-11-22T06:45:16;2.83;;;0.88;;
11287;SDS011;5700;50.996;7.044;2022-11-22T06:48:18;7.35;;;1.27;;
11287;SDS011;5700;50.996;7.044;2022-11-22T06:51:20;8.77;;;1.60;;
11287;SDS011;5700;50.996;7.044;2022-11-22T06:54:22;2.25;;;1.08;;
11287;SDS011;5700;50.996;7.044;2022-11-22T06:57:23;1.73;;;0.88;;
11287;SDS011;5700;50.996;7.044;2022-11-22T07:00:26;4.75;;;0.70;;
11287;SDS011;5700;50.996;7.044;2022-11-22T07:03:27;1.77;;;0.70;;
11287;SDS011;5700;50.996;7.044;2022-11-22T07:06:30;1.30;;;0.70;;
11287;SDS011;5700;50.996;7.044;2022-11-22T07:09:32;3.58;;;1.02;;
11287;SDS011;5700;50.996;7.044;2022-11-22T07:12:34;6.90;;;0.98;;
11287;SDS011;5700;50.996;7.044;2022-11-22T07:15:37;8.43;;;1.83;;
11287;SDS011;5700;50.996;7.044;2022-11-22T07:18:39;3.45;;;1.00;;
11287;SDS011;5700;50.996;7.044;2022-11-22T07:21:40;2.75;;;1.15;;
11287;SDS011;5700;50.996;7.044;2022-11-22T07:24:41;6.28;;;1.42;;
11287;SDS011;5700;50.996;7.044;2022-11-22T07:27:43;6.55;;;1.10;;
11287;SDS011;5700;50.996;7.044;2022-11-22T07:30:45;4.38;;;1.25;;
11287;SDS011;5700;50.996;7.044;2022-11-22T07:33:47;7.55;;;1.80;;
11287;SDS011;5700;50.996;7.044;2022-11-22T07:36:48;4.50;;;1.60;;
11287;SDS011;5700;50.996;7.044;2022-11-22T07:39:50;2.92;;;1.42;;
11287;SDS011;5700;50.996;7.044;2022-11-22T07:42:51;4.03;;;1.10;;
11287;SDS011;5700;50.996;7.044;2022-11-22T07:45:54;3.92;;;1.30;;
11287;SDS011;5700;50.996;7.044;2022-11-22T07:48:58;4.63;;;1.67;;
11287;SDS011;5700;50.996;7.044;2022-11-22T07:52:01;6.72;;;1.33;;
11287;SDS011;5700;50.996;7.044;2022-11-22T07:55:03;4.40;;;1.13;;
11287;SDS011;5700;50.996;7.044;2022-11-22T07:58:05;5.05;;;1.85;;
11287;SDS011;5700;50.996;7.044;2022-11-22T08:01:08;3.83;;;1.05;;
11287;SDS011;5700;50.996;7.044;2022-11-22T08:04:11;5.53;;;1.10;;
11287;SDS011;5700;50.996;7.044;2022-11-22T08:07:13;2.83;;;1.02;;
11287;SDS011;5700;50.996;7.044;2022-11-22T08:10:15;3.53;;;1.45;;
11287;SDS011;5700;50.996;7.044;2022-11-22T08:13:16;4.68;;;1.27;;
11287;SDS011;5700;50.996;7.044;2022-11-22T08:16:19;2.20;;;0.90;;
11287;SDS011;5700;50.996;7.044;2022-11-22T08:19:20;4.18;;;1.23;;
11287;SDS011;5700;50.996;7.044;2022-11-22T08:22:22;5.35;;;1.13;;
11287;SDS011;5700;50.996;7.044;2022-11-22T08:25:23;7.97;;;1.38;;
11287;SDS011;5700;50.996;7.044;2022-11-22T08:28:25;4.40;;;1.40;;
11287;SDS011;5700;50.996;7.044;2022-11-22T08:31:27;3.72;;;1.00;;
11287;SDS011;5700;50.996;7.044;2022-11-22T08:34:29;10.07;;;1.95;;
11287;SDS011;5700;50.996;7.044;2022-11-22T08:37:30;5.60;;;1.15;;
11287;SDS011;5700;50.996;7.044;2022-11-22T08:40:32;7.03;;;1.38;;
11287;SDS011;5700;50.996;7.044;2022-11-22T08:43:33;5.72;;;1.20;;
11287;SDS011;5700;50.996;7.044;2022-11-22T08:46:36;3.58;;;1.10;;
11287;SDS011;5700;50.996;7.044;2022-11-22T08:49:37;3.85;;;1.40;;
11287;SDS011;5700;50.996;7.044;2022-11-22T08:52:38;5.20;;;1.65;;
11287;SDS011;5700;50.996;7.044;2022-11-22T08:55:40;3.42;;;1.10;;
11287;SDS011;5700;50.996;7.044;2022-11-22T08:58:41;5.15;;;1.38;;
11287;SDS011;5700;50.996;7.044;2022-11-22T09:01:44;1.45;;;1.10;;
11287;SDS011;5700;50.996;7.044;2022-11-22T09:04:45;6.25;;;1.00;;
11287;SDS011;5700;50.996;7.044;2022-11-22T09:07:47;11.00;;;1.20;;
11287;SDS011;5700;50.996;7.044;2022-11-22T09:10:48;3.70;;;0.98;;
11287;SDS011;5700;50.996;7.044;2022-11-22T09:13:49;1.48;;;0.65;;
11287;SDS011;5700;50.996;7.044;2022-11-22T09:16:52;2.60;;;1.02;;
11287;SDS011;5700;50.996;7.044;2022-11-22T09:19:53;2.75;;;1.00;;
11287;SDS011;5700;50.996;7.044;2022-11-22T09:22:55;4.10;;;0.77;;
11287;SDS011;5700;50.996;7.044;2022-11-22T09:25:56;2.22;;;1.05;;
11287;SDS011;5700;50.996;7.044;2022-11-22T09:28:58;0.98;;;0.60;;
11287;SDS011;5700;50.996;7.044;2022-11-22T09:32:01;4.07;;;1.17;;
11287;SDS011;5700;50.996;7.044;2022-11-22T09:35:03;1.92;;;1.02;;
11287;SDS011;5700;50.996;7.044;2022-11-22T09:38:05;2.92;;;0.90;;
11287;SDS011;5700;50.996;7.044;2022-11-22T09:41:12;2.20;;;1.35;;
11287;SDS011;5700;50.996;7.044;2022-11-22T09:44:22;3.05;;;1.17;;
11287;SDS011;5700;50.996;7.044;2022-11-22T09:47:34;7.60;;;1.67;;
11287;SDS011;5700;50.996;7.044;2022-11-22T09:50:41;5.95;;;0.90;;
11287;SDS011;5700;50.996;7.044;2022-11-22T09:53:47;6.32;;;1.02;;
11287;SDS011;5700;50.996;7.044;2022-11-22T09:56:53;4.28;;;1.05;;
11287;SDS011;5700;50.996;7.044;2022-11-22T09:59:59;1.23;;;0.47;;
11287;SDS011;5700;50.996;7.044;2022-11-22T10:03:05;3.25;;;0.70;;
11287;SDS011;5700;50.996;7.044;2022-11-22T10:06:12;1.10;;;1.00;;
11287;SDS011;5700;50.996;7.044;2022-11-22T10:09:19;3.42;;;1.05;;
11287;SDS011;5700;50.996;7.044;2022-11-22T10:12:26;5.65;;;0.68;;
11287;SDS011;5700;50.996;7.044;2022-11-22T10:15:34;4.88;;;0.93;;
11287;SDS011;5700;50.996;7.044;2022-11-22T10:18:42;2.50;;;0.70;;
11287;SDS011;5700;50.996;7.044;2022-11-22T10:21:44;7.72;;;1.55;;
11287;SDS011;5700;50.996;7.044;2022-11-22T10:24:47;2.60;;;1.10;;
11287;SDS011;5700;50.996;7.044;2022-11-22T10:27:49;2.95;;;0.80;;
11287;SDS011;5700;50.996;7.044;2022-11-22T10:30:54;3.60;;;1.00;;
11287;SDS011;5700;50.996;7.044;2022-11-22T10:34:03;2.38;;;1.08;;
11287;SDS011;5700;50.996;7.044;2022-11-22T10:37:11;7.30;;;1.08;;
11287;SDS011;5700;50.996;7.044;2022-11-22T10:40:17;1.95;;;0.70;;
11287;SDS011;5700;50.996;7.044;2022-11-22T10:43:26;2.55;;;1.13;;
11287;SDS011;5700;50.996;7.044;2022-11-22T10:46:32;2.33;;;0.68;;
11287;SDS011;5700;50.996;7.044;2022-11-22T10:49:46;3.10;;;0.80;;
11287;SDS011;5700;50.996;7.044;2022-11-22T10:52:55;7.30;;;0.82;;
11287;SDS011;5700;50.996;7.044;2022-11-22T10:56:02;1.55;;;0.80;;
11287;SDS011;5700;50.996;7.044;2022-11-22T10:59:13;3.20;;;0.63;;
11287;SDS011;5700;50.996;7.044;2022-11-22T11:02:28;1.17;;;0.75;;
11287;SDS011;5700;50.996;7.044;2022-11-22T11:05:42;2.75;;;0.95;;
11287;SDS011;5700;50.996;7.044;2022-11-22T11:08:48;0.70;;;0.70;;
11287;SDS011;5700;50.996;7.044;2022-11-22T11:11:51;1.65;;;0.60;;
11287;SDS011;5700;50.996;7.044;2022-11-22T11:14:54;4.47;;;0.85;;
11287;SDS011;5700;50.996;7.044;2022-11-22T11:17:58;1.02;;;0.60;;
11287;SDS011;5700;50.996;7.044;2022-11-22T11:21:05;2.05;;;0.60;;
11287;SDS011;5700;50.996;7.044;2022-11-22T11:24:09;5.25;;;0.80;;
11287;SDS011;5700;50.996;7.044;2022-11-22T11:27:13;4.72;;;0.88;;
11287;SDS011;5700;50.996;7.044;2022-11-22T11:30:16;2.03;;;0.60;;
11287;SDS011;5700;50.996;7.044;2022-11-22T11:33:19;1.95;;;0.40;;
11287;SDS011;5700;50.996;7.044;2022-11-22T11:36:25;1.05;;;0.40;;
11287;SDS011;5700;50.996;7.044;2022-11-22T11:39:27;1.92;;;0.50;;
11287;SDS011;5700;50.996;7.044;2022-11-22T11:42:30;1.33;;;0.70;;
11287;SDS011;5700;50.996;7.044;2022-11-22T11:45:33;1.55;;;0.35;;
11287;SDS011;5700;50.996;7.044;2022-11-22T11:48:35;1.63;;;0.52;;
11287;SDS011;5700;50.996;7.044;2022-11-22T11:51:39;3.22;;;1.05;;
11287;SDS011;5700;50.996;7.044;2022-11-22T11:54:42;1.40;;;0.50;;
11287;SDS011;5700;50.996;7.044;2022-11-22T11:57:44;1.33;;;0.65;;
11287;SDS011;5700;50.996;7.044;2022-11-22T12:00:46;1.02;;;0.50;;
11287;SDS011;5700;50.996;7.044;2022-11-22T12:03:51;3.63;;;0.52;;
11287;SDS011;5700;50.996;7.044;2022-11-22T12:06:56;1.38;;;0.50;;
11287;SDS011;5700;50.996;7.044;2022-11-22T12:10:05;0.85;;;0.50;;
11287;SDS011;5700;50.996;7.044;2022-11-22T12:13:29;0.73;;;0.60;;
11287;SDS011;5700;50.996;7.044;2022-11-22T12:16:36;0.75;;;0.47;;
11287;SDS011;5700;50.996;7.044;2022-11-22T12:19:42;1.95;;;0.55;;
11287;SDS011;5700;50.996;7.044;2022-11-22T12:22:54;0.45;;;0.40;;
11287;SDS011;5700;50.996;7.044;2022-11-22T12:26:02;2.70;;;1.00;;
11287;SDS011;5700;50.996;7.044;2022-11-22T12:29:04;0.32;;;0.32;;
11287;SDS011;5700;50.996;7.044;2022-11-22T12:32:06;1.15;;;0.60;;
11287;SDS011;5700;50.996;7.044;2022-11-22T12:35:12;0.73;;;0.43;;
11287;SDS011;5700;50.996;7.044;2022-11-22T12:38:17;1.85;;;0.60;;
11287;SDS011;5700;50.996;7.044;2022-11-22T12:41:24;1.65;;;0.63;;
11287;SDS011;5700;50.996;7.044;2022-11-22T12:44:28;1.77;;;0.60;;
11287;SDS011;5700;50.996;7.044;2022-11-22T12:47:34;1.08;;;0.40;;
11287;SDS011;5700;50.996;7.044;2022-11-22T12:50:40;2.25;;;0.50;;
11287;SDS011;5700;50.996;7.044;2022-11-22T12:53:45;1.20;;;0.40;;
11287;SDS011;5700;50.996;7.044;2022-11-22T12:56:47;2.40;;;0.70;;
11287;SDS011;5700;50.996;7.044;2022-11-22T12:59:52;1.33;;;0.70;;
11287;SDS011;5700;50.996;7.044;2022-11-22T13:02:58;2.30;;;0.82;;
11287;SDS011;5700;50.996;7.044;2022-11-22T13:06:02;0.43;;;0.43;;
11287;SDS011;5700;50.996;7.044;2022-11-22T13:09:08;0.60;;;0.45;;
11287;SDS011;5700;50.996;7.044;2022-11-22T13:12:13;1.92;;;0.68;;
11287;SDS011;5700;50.996;7.044;2022-11-22T13:15:20;1.63;;;0.45;;
11287;SDS011;5700;50.996;7.044;2022-11-22T13:18:30;2.22;;;0.40;;
11287;SDS011;5700;50.996;7.044;2022-11-22T13:21:38;3.10;;;0.90;;
11287;SDS011;5700;50.996;7.044;2022-11-22T13:24:50;2.72;;;0.65;;
11287;SDS011;5700;50.996;7.044;2022-11-22T13:27:59;1.67;;;0.65;;
11287;SDS011;5700;50.996;7.044;2022-11-22T13:31:02;0.68;;;0.40;;
11287;SDS011;5700;50.996;7.044;2022-11-22T13:34:16;2.00;;;0.63;;
11287;SDS011;5700;50.996;7.044;2022-11-22T13:37:24;1.05;;;0.57;;
11287;SDS011;5700;50.996;7.044;2022-11-22T13:40:28;0.88;;;0.57;;
11287;SDS011;5700;50.996;7.044;2022-11-22T13:43:31;0.85;;;0.75;;
11287;SDS011;5700;50.996;7.044;2022-11-22T13:46:55;4.05;;;0.75;;
11287;SDS011;5700;50.996;7.044;2022-11-22T13:49:59;0.75;;;0.40;;
11287;SDS011;5700;50.996;7.044;2022-11-22T13:53:15;1.25;;;0.65;;
11287;SDS011;5700;50.996;7.044;2022-11-22T14:03:31;1.30;;;0.40;;
11287;SDS011;5700;50.996;7.044;2022-11-22T14:06:35;0.40;;;0.30;;
11287;SDS011;5700;50.996;7.044;2022-11-22T14:09:37;0.50;;;0.30;;
11287;SDS011;5700;50.996;7.044;2022-11-22T14:16:06;1.17;;;0.40;;
11287;SDS011;5700;50.996;7.044;2022-11-22T14:19:25;0.95;;;0.40;;
11287;SDS011;5700;50.996;7.044;2022-11-22T14:22:32;1.48;;;0.50;;
11287;SDS011;5700;50.996;7.044;2022-11-22T14:25:48;1.08;;;0.35;;
11287;SDS011;5700;50.996;7.044;2022-11-22T14:29:09;0.47;;;0.40;;
11287;SDS011;5700;50.996;7.044;2022-11-22T14:32:38;1.13;;;0.40;;
11287;SDS011;5700;50.996;7.044;2022-11-22T14:42:45;0.40;;;0.40;;
11287;SDS011;5700;50.996;7.044;2022-11-22T14:45:48;1.05;;;0.43;;
11287;SDS011;5700;50.996;7.044;2022-11-22T14:48:52;0.70;;;0.30;;
11287;SDS011;5700;50.996;7.044;2022-11-22T14:51:56;0.35;;;0.30;;
11287;SDS011;5700;50.996;7.044;2022-11-22T14:54:58;1.38;;;0.63;;
11287;SDS011;5700;50.996;7.044;2022-11-22T14:58:03;0.40;;;0.40;;
11287;SDS011;5700;50.996;7.044;2022-11-22T15:07:51;0.80;;;0.73;;
11287;SDS011;5700;50.996;7.044;2022-11-22T15:11:02;0.43;;;0.43;;
11287;SDS011;5700;50.996;7.044;2022-11-22T15:14:20;3.58;;;1.38;;
11287;SDS011;5700;50.996;7.044;2022-11-22T15:17:35;2.58;;;1.00;;
11287;SDS011;5700;50.996;7.044;2022-11-22T15:20:38;1.55;;;0.88;;
11287;SDS011;5700;50.996;7.044;2022-11-22T15:23:41;1.08;;;0.80;;
11287;SDS011;5700;50.996;7.044;2022-11-22T15:26:42;1.67;;;0.93;;
11287;SDS011;5700;50.996;7.044;2022-11-22T15:29:46;7.53;;;2.88;;
11287;SDS011;5700;50.996;7.044;2022-11-22T15:32:49;1.95;;;0.93;;
11287;SDS011;5700;50.996;7.044;2022-11-22T15:35:56;0.55;;;0.40;;
11287;SDS011;5700;50.996;7.044;2022-11-22T15:39:11;0.98;;;0.70;;
11287;SDS011;5700;50.996;7.044;2022-11-22T15:42:13;5.93;;;2.03;;
11287;SDS011;5700;50.996;7.044;2022-11-22T15:45:17;1.67;;;0.90;;
11287;SDS011;5700;50.996;7.044;2022-11-22T15:48:20;2.22;;;0.93;;
11287;SDS011;5700;50.996;7.044;2022-11-22T15:51:25;1.30;;;0.75;;
11287;SDS011;5700;50.996;7.044;2022-11-22T15:54:35;1.40;;;0.50;;
11287;SDS011;5700;50.996;7.044;2022-11-22T15:57:37;0.80;;;0.70;;
11287;SDS011;5700;50.996;7.044;2022-11-22T16:00:43;1.00;;;0.90;;
11287;SDS011;5700;50.996;7.044;2022-11-22T16:03:47;1.23;;;0.80;;
11287;SDS011;5700;50.996;7.044;2022-11-22T16:06:49;1.77;;;0.57;;
11287;SDS011;5700;50.996;7.044;2022-11-22T16:09:52;0.43;;;0.40;;
11287;SDS011;5700;50.996;7.044;2022-11-22T16:12:53;0.52;;;0.47;;
11287;SDS011;5700;50.996;7.044;2022-11-22T16:16:04;3.85;;;0.57;;
11287;SDS011;5700;50.996;7.044;2022-11-22T16:19:18;0.47;;;0.40;;
11287;SDS011;5700;50.996;7.044;2022-11-22T16:22:26;1.15;;;0.60;;
11287;SDS011;5700;50.996;7.044;2022-11-22T16:25:29;0.30;;;0.30;;
11287;SDS011;5700;50.996;7.044;2022-11-22T16:28:32;0.68;;;0.50;;
11287;SDS011;5700;50.996;7.044;2022-11-22T16:31:35;1.27;;;0.82;;
11287;SDS011;5700;50.996;7.044;2022-11-22T16:34:38;1.70;;;0.80;;
11287;SDS011;5700;50.996;7.044;2022-11-22T16:37:42;1.77;;;0.82;;
11287;SDS011;5700;50.996;7.044;2022-11-22T16:40:44;1.25;;;0.55;;
11287;SDS011;5700;50.996;7.044;2022-11-22T16:43:46;0.70;;;0.60;;
11287;SDS011;5700;50.996;7.044;2022-11-22T16:46:51;1.02;;;0.50;;
11287;SDS011;5700;50.996;7.044;2022-11-22T16:49:52;3.88;;;1.63;;
11287;SDS011;5700;50.996;7.044;2022-11-22T16:52:53;11.52;;;3.85;;
11287;SDS011;5700;50.996;7.044;2022-11-22T16:55:57;11.75;;;4.15;;
11287;SDS011;5700;50.996;7.044;2022-11-22T16:58:58;20.13;;;7.85;;
11287;SDS011;5700;50.996;7.044;2022-11-22T17:02:01;10.30;;;3.53;;
11287;SDS011;5700;50.996;7.044;2022-11-22T17:05:03;8.27;;;2.92;;
11287;SDS011;5700;50.996;7.044;2022-11-22T17:08:08;21.88;;;7.25;;
11287;SDS011;5700;50.996;7.044;2022-11-22T17:11:11;5.43;;;1.92;;
11287;SDS011;5700;50.996;7.044;2022-11-22T17:14:15;0.60;;;0.45;;
11287;SDS011;5700;50.996;7.044;2022-11-22T17:17:18;0.75;;;0.43;;
11287;SDS011;5700;50.996;7.044;2022-11-22T17:20:20;1.63;;;0.40;;
11287;SDS011;5700;50.996;7.044;2022-11-22T17:23:24;0.40;;;0.40;;
11287;SDS011;5700;50.996;7.044;2022-11-22T17:26:27;0.70;;;0.50;;
11287;SDS011;5700;50.996;7.044;2022-11-22T17:29:29;0.80;;;0.60;;
11287;SDS011;5700;50.996;7.044;2022-11-22T17:32:32;0.65;;;0.30;;
11287;SDS011;5700;50.996;7.044;2022-11-22T17:35:34;1.52;;;0.68;;
11287;SDS011;5700;50.996;7.044;2022-11-22T17:38:35;0.80;;;0.50;;
11287;SDS011;5700;50.996;7.044;2022-11-22T17:41:36;0.55;;;0.40;;
11287;SDS011;5700;50.996;7.044;2022-11-22T17:44:38;0.32;;;0.32;;
11287;SDS011;5700;50.996;7.044;2022-11-22T17:47:40;0.43;;;0.43;;
11287;SDS011;5700;50.996;7.044;2022-11-22T17:50:42;0.60;;;0.60;;
11287;SDS011;5700;50.996;7.044;2022-11-22T17:53:43;0.68;;;0.40;;
11287;SDS011;5700;50.996;7.044;2022-11-22T17:56:45;0.95;;;0.75;;
11287;SDS011;5700;50.996;7.044;2022-11-22T17:59:47;0.55;;;0.43;;
11287;SDS011;5700;50.996;7.044;2022-11-22T18:02:49;0.50;;;0.40;;
11287;SDS011;5700;50.996;7.044;2022-11-22T18:05:50;1.27;;;0.80;;
11287;SDS011;5700;50.996;7.044;2022-11-22T18:08:52;3.25;;;1.55;;
11287;SDS011;5700;50.996;7.044;2022-11-22T18:11:53;4.85;;;0.93;;
11287;SDS011;5700;50.996;7.044;2022-11-22T18:14:55;2.05;;;0.90;;
11287;SDS011;5700;50.996;7.044;2022-11-22T18:17:57;2.72;;;1.10;;
11287;SDS011;5700;50.996;7.044;2022-11-22T18:20:59;5.57;;;1.42;;
11287;SDS011;5700;50.996;7.044;2022-11-22T18:24:00;1.50;;;0.70;;
11287;SDS011;5700;50.996;7.044;2022-11-22T18:27:02;5.47;;;1.80;;
11287;SDS011;5700;50.996;7.044;2022-11-22T18:30:04;3.03;;;1.42;;
11287;SDS011;5700;50.996;7.044;2022-11-22T18:33:07;3.75;;;1.42;;
11287;SDS011;5700;50.996;7.044;2022-11-22T18:36:22;3.03;;;1.17;;
11287;SDS011;5700;50.996;7.044;2022-11-22T18:39:24;3.13;;;0.77;;
11287;SDS011;5700;50.996;7.044;2022-11-22T18:42:26;2.78;;;0.90;;
11287;SDS011;5700;50.996;7.044;2022-11-22T18:45:27;0.60;;;0.57;;
11287;SDS011;5700;50.996;7.044;2022-11-22T18:48:32;1.98;;;0.60;;
11287;SDS011;5700;50.996;7.044;2022-11-22T18:51:35;1.23;;;0.75;;
11287;SDS011;5700;50.996;7.044;2022-11-22T18:54:37;2.72;;;1.20;;
11287;SDS011;5700;50.996;7.044;2022-11-22T18:57:38;1.85;;;0.68;;
11287;SDS011;5700;50.996;7.044;2022-11-22T19:00:39;1.30;;;0.85;;
11287;SDS011;5700;50.996;7.044;2022-11-22T19:03:42;1.75;;;0.73;;
11287;SDS011;5700;50.996;7.044;2022-11-22T19:06:44;0.85;;;0.60;;
11287;SDS011;5700;50.996;7.044;2022-11-22T19:09:45;0.98;;;0.50;;